createdAt,value
2022-10-18T00:00:44.706Z,100.00
2022-10-18T00:03:11.115Z,100.00
2022-10-18T00:05:37.521Z,100.00
2022-10-18T00:08:03.929Z,100.00
2022-10-18T00:10:30.472Z,100.00
2022-10-18T00:12:56.808Z,100.00
2022-10-18T00:15:23.246Z,100.00
2022-10-18T00:17:49.584Z,100.00
2022-10-18T00:20:15.952Z,100.00
2022-10-18T00:22:42.399Z,100.00
2022-10-18T00:25:09.976Z,100.00
2022-10-18T00:27:36.999Z,100.00
2022-10-18T00:30:04.600Z,100.00
2022-10-18T00:32:31.415Z,100.00
2022-10-18T00:34:58.005Z,100.00
2022-10-18T00:37:24.379Z,100.00
2022-10-18T00:39:53.782Z,100.00
2022-10-18T00:42:22.505Z,100.00
2022-10-18T00:44:48.771Z,100.00
2022-10-18T00:47:17.952Z,100.00
2022-10-18T00:49:48.391Z,100.00
2022-10-18T00:52:37.398Z,100.00
2022-10-18T00:55:05.235Z,100.00
2022-10-18T00:57:32.601Z,100.00
2022-10-18T00:59:59.049Z,100.00
2022-10-18T01:02:26.099Z,100.00
2022-10-18T01:04:52.457Z,100.00
2022-10-18T01:07:58.396Z,100.00
2022-10-18T01:10:31.996Z,100.00
2022-10-18T01:13:26.095Z,100.00
2022-10-18T01:16:14.372Z,100.00
2022-10-18T01:18:57.684Z,100.00
2022-10-18T01:21:55.474Z,100.00
2022-10-18T01:25:14.074Z,100.00
2022-10-18T01:27:54.949Z,100.00
2022-10-18T01:30:38.390Z,100.00
2022-10-18T01:33:13.071Z,100.00
2022-10-18T01:35:47.224Z,100.00
2022-10-18T01:38:17.954Z,100.00
2022-10-18T01:40:47.712Z,100.00
2022-10-18T01:43:16.484Z,100.00
2022-10-18T01:45:43.037Z,100.00
2022-10-18T01:48:11.712Z,100.00
2022-10-18T01:50:38.140Z,100.00
2022-10-18T01:53:04.619Z,100.00
2022-10-18T01:55:43.068Z,100.00
2022-10-18T01:58:21.395Z,100.00
2022-10-18T02:00:55.401Z,100.00
2022-10-18T02:03:23.860Z,100.00
2022-10-18T02:06:28.954Z,100.00
2022-10-18T02:09:11.144Z,100.00
2022-10-18T02:11:39.420Z,100.00
2022-10-18T02:14:12.999Z,100.00
2022-10-18T02:16:41.884Z,100.00
2022-10-18T02:21:53.596Z,100.00
2022-10-18T02:24:21.163Z,100.00
2022-10-18T02:26:47.569Z,100.00
2022-10-18T02:29:13.934Z,100.00
2022-10-18T02:31:49.684Z,100.00
2022-10-18T02:34:30.500Z,100.00
2022-10-18T02:36:59.539Z,100.00
2022-10-18T02:39:37.577Z,100.00
2022-10-18T02:42:08.845Z,100.00
2022-10-18T02:44:35.961Z,100.00
2022-10-18T02:47:03.143Z,100.00
2022-10-18T02:49:29.504Z,100.00
2022-10-18T02:51:55.942Z,100.00
2022-10-18T02:54:23.181Z,100.00
2022-10-18T02:56:50.397Z,100.00
2022-10-18T02:59:17.026Z,100.00
2022-10-18T03:01:43.576Z,100.00
2022-10-18T03:04:10.082Z,100.00
2022-10-18T03:06:36.456Z,100.00
2022-10-18T03:09:04.674Z,100.00
2022-10-18T03:11:31.326Z,100.00
2022-10-18T03:13:58.021Z,100.00
2022-10-18T03:16:24.511Z,100.00
2022-10-18T03:18:50.863Z,100.00
2022-10-18T03:21:17.213Z,100.00
2022-10-18T03:23:43.657Z,100.00
2022-10-18T03:26:10.131Z,100.00
2022-10-18T03:28:36.504Z,100.00
2022-10-18T03:31:04.389Z,100.00
2022-10-18T03:33:31.422Z,100.00
2022-10-18T03:35:57.827Z,100.00
2022-10-18T03:38:24.335Z,100.00
2022-10-18T03:40:50.971Z,100.00
2022-10-18T03:43:17.467Z,100.00
2022-10-18T03:45:43.860Z,100.00
2022-10-18T03:48:10.283Z,100.00
2022-10-18T03:50:36.629Z,100.00
2022-10-18T03:53:03.277Z,100.00
2022-10-18T03:55:29.618Z,100.00
2022-10-18T03:57:56.183Z,100.00
2022-10-18T04:00:22.781Z,100.00
2022-10-18T04:02:52.031Z,100.00
2022-10-18T04:05:27.264Z,100.00
2022-10-18T04:07:54.810Z,100.00
2022-10-18T04:10:21.189Z,100.00
2022-10-18T04:12:47.562Z,100.00
2022-10-18T04:15:13.920Z,100.00
2022-10-18T04:17:40.348Z,100.00
2022-10-18T04:20:07.292Z,100.00
2022-10-18T04:22:33.666Z,100.00
2022-10-18T04:25:00.087Z,100.00
2022-10-18T04:27:26.495Z,100.00
2022-10-18T04:29:53.023Z,100.00
2022-10-18T04:32:19.357Z,100.00
2022-10-18T04:34:45.720Z,100.00
2022-10-18T04:37:12.163Z,100.00
2022-10-18T04:39:38.504Z,100.00
2022-10-18T04:42:05.019Z,100.00
2022-10-18T04:44:31.347Z,100.00
2022-10-18T04:46:57.738Z,100.00
2022-10-18T04:49:24.325Z,100.00
2022-10-18T04:51:50.694Z,100.00
2022-10-18T04:54:17.169Z,100.00
2022-10-18T04:56:43.523Z,100.00
2022-10-18T04:59:09.880Z,100.00
2022-10-18T05:01:36.294Z,100.00
2022-10-18T05:04:02.668Z,100.00
2022-10-18T05:06:29.023Z,100.00
2022-10-18T05:08:55.454Z,100.00
2022-10-18T05:11:21.842Z,100.00
2022-10-18T05:13:50.187Z,100.00
2022-10-18T05:16:17.846Z,100.00
2022-10-18T05:18:44.273Z,100.00
2022-10-18T05:21:12.315Z,100.00
2022-10-18T05:23:38.861Z,100.00
2022-10-18T05:26:07.197Z,100.00
2022-10-18T05:28:39.797Z,100.00
2022-10-18T05:31:09.632Z,100.00
2022-10-18T05:33:36.229Z,100.00
2022-10-18T05:36:03.321Z,100.00
2022-10-18T05:38:32.685Z,100.00
2022-10-18T05:40:59.695Z,100.00
2022-10-18T05:43:29.299Z,100.00
2022-10-18T05:45:55.767Z,100.00
2022-10-18T05:48:22.332Z,100.00
2022-10-18T05:50:48.651Z,100.00
2022-10-18T05:53:35.335Z,100.00
2022-10-18T05:56:02.364Z,100.00
2022-10-18T05:58:28.857Z,100.00
2022-10-18T06:00:58.981Z,100.00
2022-10-18T06:03:25.323Z,100.00
2022-10-18T06:05:51.685Z,100.00
2022-10-18T06:08:18.042Z,100.00
2022-10-18T06:10:44.423Z,100.00
2022-10-18T06:13:10.889Z,100.00
2022-10-18T06:15:37.268Z,100.00
2022-10-18T06:18:03.859Z,100.00
2022-10-18T06:20:30.283Z,100.00
2022-10-18T06:22:56.913Z,100.00
2022-10-18T06:25:23.352Z,100.00
2022-10-18T06:27:49.775Z,100.00
2022-10-18T06:30:16.118Z,100.00
2022-10-18T06:32:42.454Z,100.00
2022-10-18T06:35:09.299Z,100.00
2022-10-18T06:37:36.909Z,100.00
2022-10-18T06:40:04.276Z,100.00
2022-10-18T06:42:31.912Z,100.00
2022-10-18T06:44:58.611Z,100.00
2022-10-18T06:47:24.975Z,100.00
2022-10-18T06:49:51.325Z,100.00
2022-10-18T06:52:18.252Z,100.00
2022-10-18T06:54:45.536Z,100.00
2022-10-18T06:57:11.913Z,100.00
2022-10-18T06:59:38.501Z,100.00
2022-10-18T07:02:04.891Z,100.00
2022-10-18T07:04:31.339Z,100.00
2022-10-18T07:06:57.751Z,100.00
2022-10-18T07:09:24.142Z,100.00
2022-10-18T07:11:50.548Z,100.00
2022-10-18T07:14:16.874Z,100.00
2022-10-18T07:16:43.262Z,100.00
2022-10-18T07:19:09.739Z,100.00
2022-10-18T07:21:36.388Z,100.00
2022-10-18T07:24:02.912Z,100.00
2022-10-18T07:26:31.602Z,100.00
2022-10-18T07:29:01.830Z,100.00
2022-10-18T07:31:29.694Z,100.00
2022-10-18T07:33:56.643Z,100.00
2022-10-18T07:36:24.430Z,100.00
2022-10-18T07:38:52.152Z,100.00
2022-10-18T07:41:19.212Z,100.00
2022-10-18T07:43:48.496Z,100.00
2022-10-18T07:46:15.907Z,100.00
2022-10-18T07:48:42.302Z,100.00
2022-10-18T07:51:09.647Z,100.00
2022-10-18T07:53:36.365Z,99.87
2022-10-18T07:56:08.601Z,99.38
2022-10-18T07:58:35.908Z,99.18
2022-10-18T08:01:07.144Z,98.42
2022-10-18T08:03:34.407Z,98.01
2022-10-18T08:06:01.436Z,97.34
2022-10-18T08:08:28.788Z,96.65
2022-10-18T08:10:55.253Z,96.85
2022-10-18T08:13:22.210Z,97.40
2022-10-18T08:15:48.553Z,96.86
2022-10-18T08:18:15.072Z,97.31
2022-10-18T08:20:45.149Z,97.22
2022-10-18T08:23:12.029Z,97.30
2022-10-18T08:25:38.590Z,97.59
2022-10-18T08:28:05.265Z,98.69
2022-10-18T08:30:31.646Z,99.43
2022-10-18T08:32:58.006Z,99.16
2022-10-18T08:35:24.403Z,98.66
2022-10-18T08:37:51.334Z,98.53
2022-10-18T08:40:17.886Z,98.47
2022-10-18T08:43:21.592Z,98.50
2022-10-18T08:45:50.835Z,98.42
2022-10-18T08:48:22.336Z,97.98
2022-10-18T08:50:50.843Z,98.52
2022-10-18T08:53:27.611Z,99.19
2022-10-18T08:56:15.008Z,98.89
2022-10-18T08:58:44.349Z,99.00
2022-10-18T09:01:32.457Z,98.87
2022-10-18T09:04:24.504Z,98.72
2022-10-18T09:07:22.434Z,98.77
2022-10-18T09:10:05.092Z,98.71
2022-10-18T09:12:50.148Z,98.87
2022-10-18T09:15:35.290Z,99.11
2022-10-18T09:18:33.530Z,99.80
2022-10-18T09:21:07.080Z,100.00
2022-10-18T09:23:57.145Z,100.00
2022-10-18T09:26:24.671Z,100.00
2022-10-18T09:29:01.387Z,100.00
2022-10-18T09:31:52.404Z,100.00
2022-10-18T09:34:24.405Z,100.00
2022-10-18T09:36:52.428Z,100.00
2022-10-18T09:39:22.887Z,100.00
2022-10-18T09:41:59.942Z,100.00
2022-10-18T09:44:34.479Z,100.00
2022-10-18T09:47:16.535Z,100.00
2022-10-18T09:49:47.846Z,100.00
2022-10-18T09:52:19.554Z,100.00
2022-10-18T09:54:57.147Z,100.00
2022-10-18T09:57:31.386Z,100.00
2022-10-18T09:59:58.892Z,100.00
2022-10-18T10:02:25.279Z,100.00
2022-10-18T10:04:54.062Z,98.56
2022-10-18T10:07:24.821Z,97.45
2022-10-18T10:09:59.019Z,96.60
2022-10-18T10:12:27.781Z,93.05
2022-10-18T10:15:29.539Z,92.81
2022-10-18T10:18:18.986Z,89.54
2022-10-18T10:20:48.518Z,88.71
2022-10-18T10:23:20.986Z,87.61
2022-10-18T10:25:56.475Z,87.37
2022-10-18T10:28:30.093Z,85.63
2022-10-18T10:31:24.158Z,87.16
2022-10-18T10:34:05.794Z,85.10
2022-10-18T10:36:34.105Z,84.19
2022-10-18T10:39:13.493Z,83.68
2022-10-18T10:41:41.306Z,82.86
2022-10-18T10:44:19.888Z,82.46
2022-10-18T10:46:49.372Z,80.65
2022-10-18T10:49:39.150Z,79.65
2022-10-18T10:52:09.403Z,77.81
2022-10-18T10:54:53.850Z,76.92
2022-10-18T10:57:24.601Z,77.12
2022-10-18T10:59:53.747Z,74.23
2022-10-18T11:02:21.846Z,74.49
2022-10-18T11:04:53.129Z,73.58
2022-10-18T11:07:22.445Z,72.93
2022-10-18T11:10:02.126Z,72.28
2022-10-18T11:12:33.659Z,71.69
2022-10-18T11:15:11.992Z,72.52
2022-10-18T11:18:10.232Z,72.53
2022-10-18T11:20:58.192Z,72.91
2022-10-18T11:23:32.779Z,71.96
2022-10-18T11:26:19.080Z,70.88
2022-10-18T11:29:06.268Z,71.09
2022-10-18T11:31:40.273Z,66.40
2022-10-18T11:34:39.567Z,68.21
2022-10-18T11:37:28.172Z,66.06
2022-10-18T11:40:05.592Z,66.45
2022-10-18T11:42:55.571Z,67.28
2022-10-18T11:45:39.103Z,68.45
2022-10-18T11:48:31.316Z,68.09
2022-10-18T11:51:15.208Z,66.95
2022-10-18T11:53:58.130Z,67.27
2022-10-18T11:56:30.400Z,66.59
2022-10-18T11:59:25.785Z,65.29
2022-10-18T12:02:12.464Z,66.75
2022-10-18T12:04:53.086Z,66.48
2022-10-18T12:07:28.968Z,65.13
2022-10-18T12:10:00.552Z,65.97
2022-10-18T12:12:32.050Z,66.78
2022-10-18T12:15:06.847Z,65.43
2022-10-18T12:17:49.656Z,65.51
2022-10-18T12:20:23.448Z,65.73
2022-10-18T12:22:59.840Z,64.55
2022-10-18T12:25:29.368Z,64.44
2022-10-18T12:28:17.434Z,63.95
2022-10-18T12:31:08.023Z,62.98
2022-10-18T12:33:45.868Z,64.71
2022-10-18T12:36:51.153Z,63.82
2022-10-18T12:39:43.850Z,61.38
2022-10-18T12:42:28.695Z,61.53
2022-10-18T12:45:05.487Z,62.27
2022-10-18T12:47:33.185Z,62.50
2022-10-18T12:50:03.283Z,62.86
2022-10-18T12:52:34.496Z,64.59
2022-10-18T12:55:13.915Z,62.67
2022-10-18T12:57:52.983Z,64.27
2022-10-18T13:00:31.628Z,64.50
2022-10-18T13:03:18.435Z,63.70
2022-10-18T13:05:56.213Z,62.98
2022-10-18T13:08:30.104Z,63.47
2022-10-18T13:11:11.657Z,63.03
2022-10-18T13:14:19.430Z,63.94
2022-10-18T13:17:20.199Z,62.89
2022-10-18T13:20:27.061Z,64.73
2022-10-18T13:23:13.489Z,64.45
2022-10-18T13:26:04.909Z,64.85
2022-10-18T13:28:55.820Z,65.56
2022-10-18T13:31:30.229Z,64.29
2022-10-18T13:34:33.099Z,65.10
2022-10-18T13:37:18.555Z,65.99
2022-10-18T13:39:45.047Z,65.51
2022-10-18T13:42:14.369Z,64.86
2022-10-18T13:44:43.521Z,65.95
2022-10-18T13:47:16.242Z,65.29
2022-10-18T13:49:59.586Z,65.61
2022-10-18T13:53:00.071Z,63.08
2022-10-18T13:55:55.012Z,62.00
2022-10-18T13:58:34.631Z,61.27
2022-10-18T14:01:30.414Z,62.35
2022-10-18T14:04:36.655Z,61.81
2022-10-18T14:07:05.926Z,61.64
2022-10-18T14:09:47.856Z,63.40
2022-10-18T14:12:48.102Z,65.42
2022-10-18T14:15:34.189Z,66.69
2022-10-18T14:19:00.918Z,66.58
2022-10-18T14:21:35.387Z,66.82
2022-10-18T14:24:02.893Z,67.43
2022-10-18T14:26:47.450Z,68.25
2022-10-18T14:29:20.217Z,67.78
2022-10-18T14:31:53.432Z,69.47
2022-10-18T14:34:20.616Z,67.70
2022-10-18T14:36:56.527Z,68.40
2022-10-18T14:39:28.982Z,69.05
2022-10-18T14:41:57.148Z,68.39
2022-10-18T14:44:30.199Z,68.84
2022-10-18T14:47:04.837Z,68.88
2022-10-18T14:49:31.683Z,69.53
2022-10-18T14:52:00.572Z,70.39
2022-10-18T14:54:37.777Z,70.34
2022-10-18T14:57:06.924Z,71.53
2022-10-18T14:59:51.768Z,70.52
2022-10-18T15:02:26.281Z,70.03
2022-10-18T15:04:59.670Z,69.17
2022-10-18T15:07:29.085Z,69.54
2022-10-18T15:09:58.019Z,69.34
2022-10-18T15:12:25.563Z,69.34
2022-10-18T15:14:53.968Z,70.06
2022-10-18T15:17:26.361Z,70.27
2022-10-18T15:20:19.226Z,70.74
2022-10-18T15:22:48.649Z,71.09
2022-10-18T15:25:15.328Z,71.77
2022-10-18T15:27:45.245Z,72.06
2022-10-18T15:30:19.428Z,73.12
2022-10-18T15:32:50.713Z,73.87
2022-10-18T15:35:25.725Z,74.35
2022-10-18T15:37:54.441Z,74.88
2022-10-18T15:40:23.713Z,75.72
2022-10-18T15:42:51.830Z,76.14
2022-10-18T15:45:24.120Z,76.50
2022-10-18T15:48:05.772Z,76.84
2022-10-18T15:51:02.017Z,77.34
2022-10-18T15:53:33.674Z,77.99
2022-10-18T15:56:06.583Z,78.45
2022-10-18T15:58:48.926Z,78.63
2022-10-18T16:01:26.999Z,79.00
2022-10-18T16:06:21.075Z,79.27
2022-10-18T16:08:50.151Z,79.36
2022-10-18T16:11:19.768Z,79.64
2022-10-18T16:13:47.202Z,79.83
2022-10-18T16:16:25.423Z,80.22
2022-10-18T16:18:52.954Z,80.57
2022-10-18T16:21:20.892Z,81.09
2022-10-18T16:23:48.906Z,81.70
2022-10-18T16:26:16.682Z,82.11
2022-10-18T16:28:43.770Z,82.54
2022-10-18T16:33:42.697Z,83.26
2022-10-18T16:36:16.512Z,83.74
2022-10-18T16:38:44.268Z,84.12
2022-10-18T16:41:11.654Z,84.38
2022-10-18T16:43:39.485Z,84.35
2022-10-18T16:46:07.592Z,84.71
2022-10-18T16:51:46.975Z,84.98
2022-10-18T16:54:13.446Z,85.03
2022-10-18T16:56:40.191Z,85.62
2022-10-18T16:59:06.653Z,85.66
2022-10-18T17:01:33.337Z,86.24
2022-10-18T17:03:59.707Z,86.41
2022-10-18T17:06:29.521Z,86.58
2022-10-18T17:08:56.974Z,86.70
2022-10-18T17:11:26.563Z,87.00
2022-10-18T17:13:53.375Z,86.90
2022-10-18T17:19:02.717Z,88.12
2022-10-18T17:21:30.112Z,88.36
2022-10-18T17:24:00.436Z,88.85
2022-10-18T17:26:28.803Z,89.01
2022-10-18T17:28:59.755Z,90.54
2022-10-18T17:31:26.739Z,90.35
2022-10-18T17:33:56.019Z,90.86
2022-10-18T17:36:22.482Z,91.04
2022-10-18T17:38:52.673Z,90.80
2022-10-18T17:41:19.270Z,90.74
2022-10-18T17:43:45.623Z,90.56
2022-10-18T17:46:14.155Z,90.58
2022-10-18T17:48:41.895Z,90.54
2022-10-18T17:51:10.208Z,90.42
2022-10-18T17:53:36.823Z,90.50
2022-10-18T17:56:04.686Z,90.70
2022-10-18T17:58:31.943Z,90.85
2022-10-18T18:01:07.676Z,91.02
2022-10-18T18:03:34.069Z,91.07
2022-10-18T18:06:00.443Z,91.17
2022-10-18T18:08:26.852Z,91.42
2022-10-18T18:10:56.299Z,91.67
2022-10-18T18:13:23.726Z,91.78
2022-10-18T18:15:50.063Z,92.28
2022-10-18T18:18:16.676Z,92.25
2022-10-18T18:20:53.259Z,92.58
2022-10-18T18:23:21.627Z,92.25
2022-10-18T18:25:56.815Z,92.11
2022-10-18T18:28:23.300Z,92.26
2022-10-18T18:30:49.661Z,92.37
2022-10-18T18:33:16.220Z,92.96
2022-10-18T18:35:42.789Z,93.38
2022-10-18T18:38:09.207Z,93.55
2022-10-18T18:40:35.872Z,94.02
2022-10-18T18:43:12.383Z,94.59
2022-10-18T18:45:52.320Z,95.16
2022-10-18T18:48:19.927Z,95.45
2022-10-18T18:50:50.447Z,95.66
2022-10-18T18:53:17.007Z,95.98
2022-10-18T18:55:43.458Z,96.59
2022-10-18T18:58:10.633Z,96.56
2022-10-18T19:00:41.864Z,97.10
2022-10-18T19:03:10.870Z,97.05
2022-10-18T19:05:37.467Z,97.22
2022-10-18T19:08:05.549Z,97.43
2022-10-18T19:10:32.374Z,97.47
2022-10-18T19:12:58.966Z,97.67
2022-10-18T19:15:25.560Z,97.93
2022-10-18T19:17:51.942Z,98.12
2022-10-18T19:20:18.525Z,98.24
2022-10-18T19:22:45.434Z,98.36
2022-10-18T19:25:11.907Z,98.49
2022-10-18T19:27:38.312Z,98.69
2022-10-18T19:30:07.731Z,98.52
2022-10-18T19:32:34.283Z,98.37
2022-10-18T19:35:00.831Z,98.62
2022-10-18T19:37:27.392Z,98.53
2022-10-18T19:39:53.930Z,98.70
2022-10-18T19:42:26.109Z,98.28
2022-10-18T19:44:52.820Z,98.56
2022-10-18T19:47:20.452Z,98.36
2022-10-18T19:49:47.935Z,98.25
2022-10-18T19:52:14.350Z,97.99
2022-10-18T19:54:40.767Z,97.58
2022-10-18T19:57:07.572Z,97.14
2022-10-18T19:59:36.210Z,97.42
2022-10-18T20:02:04.608Z,97.07
2022-10-18T20:04:34.302Z,97.06
2022-10-18T20:07:02.607Z,97.19
2022-10-18T20:09:29.408Z,97.34
2022-10-18T20:11:55.791Z,96.89
2022-10-18T20:14:22.433Z,96.96
2022-10-18T20:16:48.804Z,96.98
2022-10-18T20:19:15.193Z,97.23
2022-10-18T20:21:41.583Z,97.38
2022-10-18T20:24:09.477Z,97.35
2022-10-18T20:26:36.737Z,97.59
2022-10-18T20:29:04.291Z,97.57
2022-10-18T20:31:33.944Z,97.36
2022-10-18T20:34:02.448Z,97.37
2022-10-18T20:36:30.357Z,97.36
2022-10-18T20:38:57.745Z,96.94
2022-10-18T20:41:32.813Z,97.04
2022-10-18T20:44:06.859Z,97.26
2022-10-18T20:46:36.220Z,96.67
2022-10-18T20:49:03.915Z,97.00
2022-10-18T20:51:30.590Z,97.05
2022-10-18T20:53:57.070Z,96.91
2022-10-18T20:56:26.533Z,97.28
2022-10-18T20:58:56.257Z,97.16
2022-10-18T21:01:25.803Z,97.34
2022-10-18T21:03:53.869Z,97.61
2022-10-18T21:06:42.292Z,97.71
2022-10-18T21:09:19.490Z,97.82
2022-10-18T21:11:49.267Z,98.00
2022-10-18T21:14:18.566Z,98.31
2022-10-18T21:16:46.225Z,98.12
2022-10-18T21:19:14.178Z,98.52
2022-10-18T21:21:42.380Z,98.49
2022-10-18T21:24:08.779Z,98.52
2022-10-18T21:26:36.360Z,98.64
2022-10-18T21:29:04.437Z,98.94
2022-10-18T21:31:34.633Z,99.10
2022-10-18T21:34:04.442Z,99.05
2022-10-18T21:36:32.881Z,99.58
2022-10-18T21:38:59.429Z,99.39
2022-10-18T21:41:26.081Z,99.56
2022-10-18T21:43:54.087Z,99.57
2022-10-18T21:46:22.569Z,99.62
2022-10-18T21:48:51.759Z,99.52
2022-10-18T21:51:21.115Z,99.59
2022-10-18T21:53:49.532Z,99.70
2022-10-18T21:56:18.850Z,99.70
2022-10-18T21:58:46.161Z,99.98
2022-10-18T22:01:14.592Z,99.73
2022-10-18T22:03:42.091Z,99.61
2022-10-18T22:06:14.116Z,99.49
2022-10-18T22:08:42.967Z,99.19
2022-10-18T22:11:09.774Z,99.22
2022-10-18T22:13:36.297Z,99.24
2022-10-18T22:16:04.292Z,99.29
2022-10-18T22:18:32.024Z,99.57
2022-10-18T22:21:05.098Z,99.54
2022-10-18T22:23:40.125Z,99.58
2022-10-18T22:26:09.276Z,99.75
2022-10-18T22:28:36.158Z,100.00
2022-10-18T22:31:02.690Z,100.00
2022-10-18T22:33:29.512Z,100.00
2022-10-18T22:35:55.993Z,99.77
2022-10-18T22:38:22.616Z,100.00
2022-10-18T22:40:49.468Z,100.00
2022-10-18T22:43:15.922Z,100.00
2022-10-18T22:45:42.350Z,100.00
2022-10-18T22:48:08.899Z,100.00
2022-10-18T22:50:35.340Z,100.00
2022-10-18T22:53:01.703Z,100.00
2022-10-18T22:55:28.139Z,100.00
2022-10-18T22:57:56.256Z,100.00
2022-10-18T23:00:22.689Z,100.00
2022-10-18T23:02:49.859Z,100.00
2022-10-18T23:05:16.440Z,100.00
2022-10-18T23:07:47.404Z,100.00
2022-10-18T23:10:13.837Z,100.00
2022-10-18T23:12:40.173Z,100.00
2022-10-18T23:15:07.164Z,100.00
2022-10-18T23:17:33.649Z,100.00
2022-10-18T23:20:00.180Z,100.00
2022-10-18T23:22:26.547Z,100.00
2022-10-18T23:24:52.883Z,100.00
2022-10-18T23:27:19.372Z,100.00
2022-10-18T23:29:45.786Z,100.00
2022-10-18T23:32:12.159Z,100.00
2022-10-18T23:34:38.610Z,100.00
2022-10-18T23:37:05.040Z,100.00
2022-10-18T23:39:31.377Z,100.00
2022-10-18T23:41:57.752Z,100.00
2022-10-18T23:44:24.078Z,100.00
2022-10-18T23:46:50.510Z,100.00
2022-10-18T23:49:16.910Z,100.00
2022-10-18T23:51:43.267Z,100.00
2022-10-18T23:54:09.590Z,100.00
2022-10-18T23:56:36.027Z,100.00
2022-10-18T23:59:02.582Z,100.00
